Capitol Logistics 307


KSEA
Seattle-Tacoma International Airport
Seattle, Washington, US
KPDX
Portland International Airport
Portland, Oregon, US

Activity Log

Date Flight Route Aircraft Duration
01/06/2020 CPX307 SEA7 SEA HELNS6 B763 0h 45m
07/21/2019 CPX307 SEA HELNS6 B763 0h 35m
06/19/2019 CPX307 SEA HELNS6 B763 0h 42m
03/07/2019 CPX307 SEA HELNS6 B763 0h 47m
02/27/2019 CPX307 SEA HELNS6 B763 0h 53m
01/31/2019 CPX307 SEA BUWZO KRATR2 B763 0h 37m
01/30/2019 CPX307 SEA HELNS6 B763 0h 37m

Route Details

Aircraft Information
Primary: Boeing 767-300BDSF
Backup: Not Available
Route Data
Distance: 112nm
Sched. Duration: 1h 00m
Avg. Duration: 0h 42m (-58m)
Times Flown: 7
Recm'd Route: SEA HELNS6
Planned Altitude: 23,000ft
Origin Wx: KSEA 181619Z VRB04KT 3SM R16L/5000VP6000FT BCFG SCT001 00/M01 A3040 RMK AO2 VIS S 1 T00001011
Dest. Wx: KPDX 181553Z 34004KT 1/8SM R10R/4000VP6000FT FG BKN002 OVC005 00/M01 A3036 RMK AO2 SFC VIS 1/2 SLP279 T00001006
Notes:

Financial History
Total Freight: 729,646lbs
Average Load: 104,235lbs/flt
Fuel Used: 54,147lbs
Avg. Fuel Used: 7,735lbs/flt
Fuel Expense: $60,645
Avg. Fuel Expense: $8,664
Avg. Fuel Cost: $1.12/lbs
Total Gross Income: $916,585
Pilot Pay: $1,453
Total Expenses: $99,355
Total Revenue: $755,483
Average Revenue: $130,940.65